sensor_id;sensor_type;location;lat;lon;timestamp;temperature;humidity
3281;DHT22;1652;51.31805600;6.20194400;2023-11-21T00:00:04;7.20;99.90
3281;DHT22;1652;51.31805600;6.20194400;2023-11-21T00:02:36;7.30;99.90
3281;DHT22;1652;51.31805600;6.20194400;2023-11-21T00:05:08;7.30;99.90
3281;DHT22;1652;51.31805600;6.20194400;2023-11-21T00:07:37;7.30;99.90
3281;DHT22;1652;51.31805600;6.20194400;2023-11-21T00:10:04;7.40;99.90
3281;DHT22;1652;51.31805600;6.20194400;2023-11-21T00:12:35;7.40;99.90
3281;DHT22;1652;51.31805600;6.20194400;2023-11-21T00:15:03;7.50;99.90
3281;DHT22;1652;51.31805600;6.20194400;2023-11-21T00:17:37;7.60;99.90
3281;DHT22;1652;51.31805600;6.20194400;2023-11-21T00:20:05;7.60;99.90
3281;DHT22;1652;51.31805600;6.20194400;2023-11-21T00:22:34;7.60;99.90
3281;DHT22;1652;51.31805600;6.20194400;2023-11-21T00:25:02;7.60;99.90
3281;DHT22;1652;51.31805600;6.20194400;2023-11-21T00:27:30;7.70;99.90
3281;DHT22;1652;51.31805600;6.20194400;2023-11-21T00:29:57;7.70;99.90
3281;DHT22;1652;51.31805600;6.20194400;2023-11-21T00:32:24;7.70;99.90
3281;DHT22;1652;51.31805600;6.20194400;2023-11-21T00:34:51;7.70;99.90
3281;DHT22;1652;51.31805600;6.20194400;2023-11-21T00:37:18;7.80;99.90
3281;DHT22;1652;51.31805600;6.20194400;2023-11-21T00:39:45;7.80;99.90
3281;DHT22;1652;51.31805600;6.20194400;2023-11-21T00:42:12;7.80;99.90
3281;DHT22;1652;51.31805600;6.20194400;2023-11-21T00:44:39;7.70;99.90
3281;DHT22;1652;51.31805600;6.20194400;2023-11-21T00:47:06;7.70;99.90
3281;DHT22;1652;51.31805600;6.20194400;2023-11-21T00:49:34;7.80;99.90
3281;DHT22;1652;51.31805600;6.20194400;2023-11-21T00:52:01;7.80;99.90
3281;DHT22;1652;51.31805600;6.20194400;2023-11-21T00:54:29;7.80;99.90
3281;DHT22;1652;51.31805600;6.20194400;2023-11-21T00:56:59;7.80;99.90
3281;DHT22;1652;51.31805600;6.20194400;2023-11-21T00:59:26;7.80;99.90
3281;DHT22;1652;51.31805600;6.20194400;2023-11-21T01:01:53;7.90;99.90
3281;DHT22;1652;51.31805600;6.20194400;2023-11-21T01:04:21;7.90;99.90
3281;DHT22;1652;51.31805600;6.20194400;2023-11-21T01:06:48;7.90;99.90
3281;DHT22;1652;51.31805600;6.20194400;2023-11-21T01:09:15;7.80;99.90
3281;DHT22;1652;51.31805600;6.20194400;2023-11-21T01:11:45;7.80;99.90
3281;DHT22;1652;51.31805600;6.20194400;2023-11-21T01:14:13;7.80;99.90
3281;DHT22;1652;51.31805600;6.20194400;2023-11-21T01:16:40;7.90;99.90
3281;DHT22;1652;51.31805600;6.20194400;2023-11-21T01:19:07;8.00;99.90
3281;DHT22;1652;51.31805600;6.20194400;2023-11-21T01:21:34;8.10;99.90
3281;DHT22;1652;51.31805600;6.20194400;2023-11-21T01:24:01;8.10;99.90
3281;DHT22;1652;51.31805600;6.20194400;2023-11-21T01:26:29;8.10;99.90
3281;DHT22;1652;51.31805600;6.20194400;2023-11-21T01:28:56;8.20;99.90
3281;DHT22;1652;51.31805600;6.20194400;2023-11-21T01:31:23;8.20;99.90
3281;DHT22;1652;51.31805600;6.20194400;2023-11-21T01:33:50;8.20;99.90
3281;DHT22;1652;51.31805600;6.20194400;2023-11-21T01:36:17;8.20;99.90
3281;DHT22;1652;51.31805600;6.20194400;2023-11-21T01:38:44;8.20;99.90
3281;DHT22;1652;51.31805600;6.20194400;2023-11-21T01:41:10;8.30;99.90
3281;DHT22;1652;51.31805600;6.20194400;2023-11-21T01:43:41;8.20;99.90
3281;DHT22;1652;51.31805600;6.20194400;2023-11-21T01:46:08;8.20;99.90
3281;DHT22;1652;51.31805600;6.20194400;2023-11-21T01:48:35;8.20;99.90
3281;DHT22;1652;51.31805600;6.20194400;2023-11-21T01:51:03;8.20;99.90
3281;DHT22;1652;51.31805600;6.20194400;2023-11-21T01:53:30;8.20;99.90
3281;DHT22;1652;51.31805600;6.20194400;2023-11-21T01:55:57;8.20;99.90
3281;DHT22;1652;51.31805600;6.20194400;2023-11-21T01:58:24;8.20;99.90
3281;DHT22;1652;51.31805600;6.20194400;2023-11-21T02:00:51;8.20;99.90
3281;DHT22;1652;51.31805600;6.20194400;2023-11-21T02:03:21;8.30;99.90
3281;DHT22;1652;51.31805600;6.20194400;2023-11-21T02:05:48;8.30;99.90
3281;DHT22;1652;51.31805600;6.20194400;2023-11-21T02:08:16;8.30;99.90
3281;DHT22;1652;51.31805600;6.20194400;2023-11-21T02:10:43;8.40;99.90
3281;DHT22;1652;51.31805600;6.20194400;2023-11-21T02:13:09;8.40;99.90
3281;DHT22;1652;51.31805600;6.20194400;2023-11-21T02:15:38;8.40;99.90
3281;DHT22;1652;51.31805600;6.20194400;2023-11-21T02:18:05;8.40;99.90
3281;DHT22;1652;51.31805600;6.20194400;2023-11-21T02:20:33;8.40;99.90
3281;DHT22;1652;51.31805600;6.20194400;2023-11-21T02:23:02;8.40;99.90
3281;DHT22;1652;51.31805600;6.20194400;2023-11-21T02:25:30;8.40;99.90
3281;DHT22;1652;51.31805600;6.20194400;2023-11-21T02:28:02;8.50;99.90
3281;DHT22;1652;51.31805600;6.20194400;2023-11-21T02:30:30;8.50;99.90
3281;DHT22;1652;51.31805600;6.20194400;2023-11-21T02:33:01;8.50;99.90
3281;DHT22;1652;51.31805600;6.20194400;2023-11-21T02:35:29;8.50;99.90
3281;DHT22;1652;51.31805600;6.20194400;2023-11-21T02:37:58;8.40;99.90
3281;DHT22;1652;51.31805600;6.20194400;2023-11-21T02:40:25;8.50;99.90
3281;DHT22;1652;51.31805600;6.20194400;2023-11-21T02:42:54;8.50;99.90
3281;DHT22;1652;51.31805600;6.20194400;2023-11-21T02:45:21;8.60;99.90
3281;DHT22;1652;51.31805600;6.20194400;2023-11-21T02:47:48;8.50;99.90
3281;DHT22;1652;51.31805600;6.20194400;2023-11-21T02:50:16;8.50;99.90
3281;DHT22;1652;51.31805600;6.20194400;2023-11-21T02:52:47;8.50;99.90
3281;DHT22;1652;51.31805600;6.20194400;2023-11-21T02:55:14;8.60;99.90
3281;DHT22;1652;51.31805600;6.20194400;2023-11-21T02:57:41;8.60;99.90
3281;DHT22;1652;51.31805600;6.20194400;2023-11-21T03:00:09;8.50;99.90
3281;DHT22;1652;51.31805600;6.20194400;2023-11-21T03:02:40;8.50;99.90
3281;DHT22;1652;51.31805600;6.20194400;2023-11-21T03:05:08;8.50;99.90
3281;DHT22;1652;51.31805600;6.20194400;2023-11-21T03:07:38;8.50;99.90
3281;DHT22;1652;51.31805600;6.20194400;2023-11-21T03:10:07;8.50;99.90
3281;DHT22;1652;51.31805600;6.20194400;2023-11-21T03:12:37;8.50;99.90
3281;DHT22;1652;51.31805600;6.20194400;2023-11-21T03:15:07;8.50;99.90
3281;DHT22;1652;51.31805600;6.20194400;2023-11-21T03:17:35;8.60;99.90
3281;DHT22;1652;51.31805600;6.20194400;2023-11-21T03:20:04;8.60;99.90
3281;DHT22;1652;51.31805600;6.20194400;2023-11-21T03:22:31;8.60;99.90
3281;DHT22;1652;51.31805600;6.20194400;2023-11-21T03:24:58;8.50;99.90
3281;DHT22;1652;51.31805600;6.20194400;2023-11-21T03:27:25;8.60;99.90
3281;DHT22;1652;51.31805600;6.20194400;2023-11-21T03:29:53;8.60;99.90
3281;DHT22;1652;51.31805600;6.20194400;2023-11-21T03:32:21;8.70;99.90
3281;DHT22;1652;51.31805600;6.20194400;2023-11-21T03:34:56;8.70;99.90
3281;DHT22;1652;51.31805600;6.20194400;2023-11-21T03:37:25;8.60;99.90
3281;DHT22;1652;51.31805600;6.20194400;2023-11-21T03:39:55;8.60;99.90
3281;DHT22;1652;51.31805600;6.20194400;2023-11-21T03:42:23;8.60;99.90
3281;DHT22;1652;51.31805600;6.20194400;2023-11-21T03:44:53;8.50;99.90
3281;DHT22;1652;51.31805600;6.20194400;2023-11-21T03:47:20;8.50;99.90
3281;DHT22;1652;51.31805600;6.20194400;2023-11-21T03:49:48;8.50;99.90
3281;DHT22;1652;51.31805600;6.20194400;2023-11-21T03:52:14;8.40;99.90
3281;DHT22;1652;51.31805600;6.20194400;2023-11-21T03:54:41;8.40;99.90
3281;DHT22;1652;51.31805600;6.20194400;2023-11-21T03:57:10;8.60;99.90
3281;DHT22;1652;51.31805600;6.20194400;2023-11-21T03:59:40;8.50;99.90
3281;DHT22;1652;51.31805600;6.20194400;2023-11-21T04:02:08;8.50;99.90
3281;DHT22;1652;51.31805600;6.20194400;2023-11-21T04:04:35;8.40;99.90
3281;DHT22;1652;51.31805600;6.20194400;2023-11-21T04:07:03;8.40;99.90
3281;DHT22;1652;51.31805600;6.20194400;2023-11-21T04:09:31;8.40;99.90
3281;DHT22;1652;51.31805600;6.20194400;2023-11-21T04:11:58;8.30;99.90
3281;DHT22;1652;51.31805600;6.20194400;2023-11-21T04:14:25;8.40;99.90
3281;DHT22;1652;51.31805600;6.20194400;2023-11-21T04:16:52;8.30;99.90
3281;DHT22;1652;51.31805600;6.20194400;2023-11-21T04:19:20;8.40;99.90
3281;DHT22;1652;51.31805600;6.20194400;2023-11-21T04:21:47;8.40;99.90
3281;DHT22;1652;51.31805600;6.20194400;2023-11-21T04:24:15;8.30;99.90
3281;DHT22;1652;51.31805600;6.20194400;2023-11-21T04:26:43;8.40;99.90
3281;DHT22;1652;51.31805600;6.20194400;2023-11-21T04:29:10;8.40;99.90
3281;DHT22;1652;51.31805600;6.20194400;2023-11-21T04:31:37;8.50;99.90
3281;DHT22;1652;51.31805600;6.20194400;2023-11-21T04:34:04;8.50;99.90
3281;DHT22;1652;51.31805600;6.20194400;2023-11-21T04:36:31;8.50;99.90
3281;DHT22;1652;51.31805600;6.20194400;2023-11-21T04:38:58;8.50;99.90
3281;DHT22;1652;51.31805600;6.20194400;2023-11-21T04:41:25;8.40;99.90
3281;DHT22;1652;51.31805600;6.20194400;2023-11-21T04:43:52;8.40;99.90
3281;DHT22;1652;51.31805600;6.20194400;2023-11-21T04:46:19;8.40;99.90
3281;DHT22;1652;51.31805600;6.20194400;2023-11-21T04:48:46;8.40;99.90
3281;DHT22;1652;51.31805600;6.20194400;2023-11-21T04:51:13;8.40;99.90
3281;DHT22;1652;51.31805600;6.20194400;2023-11-21T04:53:40;8.30;99.90
3281;DHT22;1652;51.31805600;6.20194400;2023-11-21T04:56:07;8.30;99.90
3281;DHT22;1652;51.31805600;6.20194400;2023-11-21T04:58:34;8.30;99.90
3281;DHT22;1652;51.31805600;6.20194400;2023-11-21T05:01:02;8.30;99.90
3281;DHT22;1652;51.31805600;6.20194400;2023-11-21T05:03:34;8.30;99.90
3281;DHT22;1652;51.31805600;6.20194400;2023-11-21T05:06:01;8.30;99.90
3281;DHT22;1652;51.31805600;6.20194400;2023-11-21T05:08:29;8.30;99.90
3281;DHT22;1652;51.31805600;6.20194400;2023-11-21T05:10:56;8.30;99.90
3281;DHT22;1652;51.31805600;6.20194400;2023-11-21T05:13:23;8.30;99.90
3281;DHT22;1652;51.31805600;6.20194400;2023-11-21T05:15:55;8.30;99.90
3281;DHT22;1652;51.31805600;6.20194400;2023-11-21T05:18:23;8.40;99.90
3281;DHT22;1652;51.31805600;6.20194400;2023-11-21T05:20:53;8.40;99.90
3281;DHT22;1652;51.31805600;6.20194400;2023-11-21T05:23:20;8.40;99.90
3281;DHT22;1652;51.31805600;6.20194400;2023-11-21T05:25:48;8.40;99.90
3281;DHT22;1652;51.31805600;6.20194400;2023-11-21T05:28:15;8.40;99.90
3281;DHT22;1652;51.31805600;6.20194400;2023-11-21T05:30:42;8.40;99.90
3281;DHT22;1652;51.31805600;6.20194400;2023-11-21T05:33:08;8.40;99.90
3281;DHT22;1652;51.31805600;6.20194400;2023-11-21T05:35:36;8.50;99.90
3281;DHT22;1652;51.31805600;6.20194400;2023-11-21T05:38:03;8.40;99.90
3281;DHT22;1652;51.31805600;6.20194400;2023-11-21T05:40:30;8.50;99.90
3281;DHT22;1652;51.31805600;6.20194400;2023-11-21T05:42:57;8.40;99.90
3281;DHT22;1652;51.31805600;6.20194400;2023-11-21T05:45:24;8.40;99.90
3281;DHT22;1652;51.31805600;6.20194400;2023-11-21T05:47:51;8.40;99.90
3281;DHT22;1652;51.31805600;6.20194400;2023-11-21T05:50:18;8.40;99.90
3281;DHT22;1652;51.31805600;6.20194400;2023-11-21T05:52:46;8.40;99.90
3281;DHT22;1652;51.31805600;6.20194400;2023-11-21T05:55:14;8.50;99.90
3281;DHT22;1652;51.31805600;6.20194400;2023-11-21T05:57:42;8.50;99.90
3281;DHT22;1652;51.31805600;6.20194400;2023-11-21T06:00:12;8.40;99.90
3281;DHT22;1652;51.31805600;6.20194400;2023-11-21T06:02:47;8.40;99.90
3281;DHT22;1652;51.31805600;6.20194400;2023-11-21T06:05:26;8.40;99.90
3281;DHT22;1652;51.31805600;6.20194400;2023-11-21T06:07:54;8.40;99.90
3281;DHT22;1652;51.31805600;6.20194400;2023-11-21T06:10:23;8.40;99.90
3281;DHT22;1652;51.31805600;6.20194400;2023-11-21T06:12:52;8.30;99.90
3281;DHT22;1652;51.31805600;6.20194400;2023-11-21T06:15:19;8.30;99.90
3281;DHT22;1652;51.31805600;6.20194400;2023-11-21T06:17:47;8.40;99.90
3281;DHT22;1652;51.31805600;6.20194400;2023-11-21T06:20:16;8.40;99.90
3281;DHT22;1652;51.31805600;6.20194400;2023-11-21T06:22:47;8.40;99.90
3281;DHT22;1652;51.31805600;6.20194400;2023-11-21T06:25:15;8.40;99.90
3281;DHT22;1652;51.31805600;6.20194400;2023-11-21T06:27:47;8.40;99.90
3281;DHT22;1652;51.31805600;6.20194400;2023-11-21T06:30:15;8.30;99.90
3281;DHT22;1652;51.31805600;6.20194400;2023-11-21T06:32:43;8.30;99.90
3281;DHT22;1652;51.31805600;6.20194400;2023-11-21T06:35:15;8.30;99.90
3281;DHT22;1652;51.31805600;6.20194400;2023-11-21T06:37:44;8.20;99.90
3281;DHT22;1652;51.31805600;6.20194400;2023-11-21T06:40:18;8.20;99.90
3281;DHT22;1652;51.31805600;6.20194400;2023-11-21T06:42:46;8.30;99.90
3281;DHT22;1652;51.31805600;6.20194400;2023-11-21T06:45:14;8.30;99.90
3281;DHT22;1652;51.31805600;6.20194400;2023-11-21T06:47:42;8.20;99.90
3281;DHT22;1652;51.31805600;6.20194400;2023-11-21T06:50:09;8.30;99.90
3281;DHT22;1652;51.31805600;6.20194400;2023-11-21T06:52:36;8.30;99.90
3281;DHT22;1652;51.31805600;6.20194400;2023-11-21T06:55:03;8.30;99.90
3281;DHT22;1652;51.31805600;6.20194400;2023-11-21T06:57:31;8.30;99.90
3281;DHT22;1652;51.31805600;6.20194400;2023-11-21T06:59:58;8.20;99.90
3281;DHT22;1652;51.31805600;6.20194400;2023-11-21T07:02:25;8.20;99.90
3281;DHT22;1652;51.31805600;6.20194400;2023-11-21T07:04:52;8.30;99.90
3281;DHT22;1652;51.31805600;6.20194400;2023-11-21T07:07:19;8.30;99.90
3281;DHT22;1652;51.31805600;6.20194400;2023-11-21T07:09:46;8.30;99.90
3281;DHT22;1652;51.31805600;6.20194400;2023-11-21T07:12:14;8.30;99.90
3281;DHT22;1652;51.31805600;6.20194400;2023-11-21T07:14:41;8.30;99.90
3281;DHT22;1652;51.31805600;6.20194400;2023-11-21T07:17:11;8.30;99.90
3281;DHT22;1652;51.31805600;6.20194400;2023-11-21T07:19:39;8.30;99.90
3281;DHT22;1652;51.31805600;6.20194400;2023-11-21T07:22:06;8.30;99.90
3281;DHT22;1652;51.31805600;6.20194400;2023-11-21T07:24:33;8.30;99.90
3281;DHT22;1652;51.31805600;6.20194400;2023-11-21T07:27:00;8.40;99.90
3281;DHT22;1652;51.31805600;6.20194400;2023-11-21T07:29:27;8.40;99.90
3281;DHT22;1652;51.31805600;6.20194400;2023-11-21T07:31:56;8.40;99.90
3281;DHT22;1652;51.31805600;6.20194400;2023-11-21T07:34:23;8.40;99.90
3281;DHT22;1652;51.31805600;6.20194400;2023-11-21T07:36:50;8.40;99.90
3281;DHT22;1652;51.31805600;6.20194400;2023-11-21T07:39:18;8.40;99.90
3281;DHT22;1652;51.31805600;6.20194400;2023-11-21T07:41:45;8.40;99.90
3281;DHT22;1652;51.31805600;6.20194400;2023-11-21T07:44:16;8.40;99.90
3281;DHT22;1652;51.31805600;6.20194400;2023-11-21T07:46:44;8.50;99.90
3281;DHT22;1652;51.31805600;6.20194400;2023-11-21T07:49:12;8.50;99.90
3281;DHT22;1652;51.31805600;6.20194400;2023-11-21T07:51:43;8.50;99.90
3281;DHT22;1652;51.31805600;6.20194400;2023-11-21T07:54:11;8.60;99.90
3281;DHT22;1652;51.31805600;6.20194400;2023-11-21T07:56:37;8.60;99.90
3281;DHT22;1652;51.31805600;6.20194400;2023-11-21T07:59:04;8.60;99.90
3281;DHT22;1652;51.31805600;6.20194400;2023-11-21T08:01:31;8.70;99.90
3281;DHT22;1652;51.31805600;6.20194400;2023-11-21T08:03:58;8.80;99.90
3281;DHT22;1652;51.31805600;6.20194400;2023-11-21T08:06:31;8.90;99.90
3281;DHT22;1652;51.31805600;6.20194400;2023-11-21T08:08:58;8.90;99.90
3281;DHT22;1652;51.31805600;6.20194400;2023-11-21T08:11:25;8.90;99.90
3281;DHT22;1652;51.31805600;6.20194400;2023-11-21T08:13:58;8.90;99.90
3281;DHT22;1652;51.31805600;6.20194400;2023-11-21T08:16:25;9.00;99.90
3281;DHT22;1652;51.31805600;6.20194400;2023-11-21T08:18:53;9.00;99.90
3281;DHT22;1652;51.31805600;6.20194400;2023-11-21T08:21:21;9.00;99.90
3281;DHT22;1652;51.31805600;6.20194400;2023-11-21T08:23:50;9.10;99.90
3281;DHT22;1652;51.31805600;6.20194400;2023-11-21T08:26:22;9.10;99.90
3281;DHT22;1652;51.31805600;6.20194400;2023-11-21T08:28:49;9.10;99.90
3281;DHT22;1652;51.31805600;6.20194400;2023-11-21T08:31:24;9.20;99.90
3281;DHT22;1652;51.31805600;6.20194400;2023-11-21T08:33:52;9.20;99.90
3281;DHT22;1652;51.31805600;6.20194400;2023-11-21T08:36:22;9.20;99.90
3281;DHT22;1652;51.31805600;6.20194400;2023-11-21T08:38:51;9.20;99.90
3281;DHT22;1652;51.31805600;6.20194400;2023-11-21T08:41:21;9.20;99.90
3281;DHT22;1652;51.31805600;6.20194400;2023-11-21T08:43:51;9.30;99.90
3281;DHT22;1652;51.31805600;6.20194400;2023-11-21T08:46:19;9.30;99.90
3281;DHT22;1652;51.31805600;6.20194400;2023-11-21T08:48:47;9.30;99.90
3281;DHT22;1652;51.31805600;6.20194400;2023-11-21T08:51:14;9.40;99.90
3281;DHT22;1652;51.31805600;6.20194400;2023-11-21T08:53:43;9.40;99.90
3281;DHT22;1652;51.31805600;6.20194400;2023-11-21T08:56:13;9.60;99.90
3281;DHT22;1652;51.31805600;6.20194400;2023-11-21T08:58:43;9.50;99.90
3281;DHT22;1652;51.31805600;6.20194400;2023-11-21T09:01:10;9.60;99.90
3281;DHT22;1652;51.31805600;6.20194400;2023-11-21T09:03:39;9.70;99.90
3281;DHT22;1652;51.31805600;6.20194400;2023-11-21T09:06:06;9.80;99.90
3281;DHT22;1652;51.31805600;6.20194400;2023-11-21T09:08:36;9.70;99.90
3281;DHT22;1652;51.31805600;6.20194400;2023-11-21T09:11:04;9.60;99.90
3281;DHT22;1652;51.31805600;6.20194400;2023-11-21T09:13:32;9.60;99.90
3281;DHT22;1652;51.31805600;6.20194400;2023-11-21T09:16:00;9.60;99.90
3281;DHT22;1652;51.31805600;6.20194400;2023-11-21T09:18:26;9.70;99.90
3281;DHT22;1652;51.31805600;6.20194400;2023-11-21T09:20:53;9.70;99.90
3281;DHT22;1652;51.31805600;6.20194400;2023-11-21T09:23:20;9.70;99.90
3281;DHT22;1652;51.31805600;6.20194400;2023-11-21T09:25:47;9.70;99.90
3281;DHT22;1652;51.31805600;6.20194400;2023-11-21T09:28:16;9.70;99.90
3281;DHT22;1652;51.31805600;6.20194400;2023-11-21T09:30:44;9.70;99.90
3281;DHT22;1652;51.31805600;6.20194400;2023-11-21T09:33:11;9.80;99.90
3281;DHT22;1652;51.31805600;6.20194400;2023-11-21T09:35:38;9.80;99.90
3281;DHT22;1652;51.31805600;6.20194400;2023-11-21T09:38:05;9.80;99.90
3281;DHT22;1652;51.31805600;6.20194400;2023-11-21T09:40:37;9.80;99.90
3281;DHT22;1652;51.31805600;6.20194400;2023-11-21T09:43:16;9.80;99.90
3281;DHT22;1652;51.31805600;6.20194400;2023-11-21T09:45:56;9.90;99.90
3281;DHT22;1652;51.31805600;6.20194400;2023-11-21T09:48:26;10.00;99.90
3281;DHT22;1652;51.31805600;6.20194400;2023-11-21T09:50:53;10.10;99.90
3281;DHT22;1652;51.31805600;6.20194400;2023-11-21T09:53:21;10.10;99.90
3281;DHT22;1652;51.31805600;6.20194400;2023-11-21T09:55:52;10.20;99.90
3281;DHT22;1652;51.31805600;6.20194400;2023-11-21T09:58:20;10.10;99.90
3281;DHT22;1652;51.31805600;6.20194400;2023-11-21T10:00:53;10.00;99.90
3281;DHT22;1652;51.31805600;6.20194400;2023-11-21T10:03:20;10.00;99.90
3281;DHT22;1652;51.31805600;6.20194400;2023-11-21T10:05:50;10.00;99.90
3281;DHT22;1652;51.31805600;6.20194400;2023-11-21T10:08:17;10.10;99.90
3281;DHT22;1652;51.31805600;6.20194400;2023-11-21T10:10:49;10.10;99.90
3281;DHT22;1652;51.31805600;6.20194400;2023-11-21T10:13:18;10.30;99.90
3281;DHT22;1652;51.31805600;6.20194400;2023-11-21T10:15:50;10.30;99.90
3281;DHT22;1652;51.31805600;6.20194400;2023-11-21T10:18:17;10.40;99.90
3281;DHT22;1652;51.31805600;6.20194400;2023-11-21T10:20:45;10.40;99.90
3281;DHT22;1652;51.31805600;6.20194400;2023-11-21T10:23:21;10.40;99.90
3281;DHT22;1652;51.31805600;6.20194400;2023-11-21T10:25:51;10.50;99.90
3281;DHT22;1652;51.31805600;6.20194400;2023-11-21T10:28:19;10.40;99.90
3281;DHT22;1652;51.31805600;6.20194400;2023-11-21T10:30:48;10.50;99.90
3281;DHT22;1652;51.31805600;6.20194400;2023-11-21T10:33:15;10.50;99.90
3281;DHT22;1652;51.31805600;6.20194400;2023-11-21T10:35:42;10.50;99.90
3281;DHT22;1652;51.31805600;6.20194400;2023-11-21T10:38:14;10.60;99.90
3281;DHT22;1652;51.31805600;6.20194400;2023-11-21T10:40:41;10.60;99.90
3281;DHT22;1652;51.31805600;6.20194400;2023-11-21T10:43:09;10.70;99.90
3281;DHT22;1652;51.31805600;6.20194400;2023-11-21T10:45:37;10.70;99.90
3281;DHT22;1652;51.31805600;6.20194400;2023-11-21T10:48:08;10.80;99.90
3281;DHT22;1652;51.31805600;6.20194400;2023-11-21T10:50:35;10.70;99.90
3281;DHT22;1652;51.31805600;6.20194400;2023-11-21T10:53:03;10.80;99.90
3281;DHT22;1652;51.31805600;6.20194400;2023-11-21T10:55:32;10.80;99.90
3281;DHT22;1652;51.31805600;6.20194400;2023-11-21T10:58:01;10.80;99.90
3281;DHT22;1652;51.31805600;6.20194400;2023-11-21T11:00:29;11.00;99.90
3281;DHT22;1652;51.31805600;6.20194400;2023-11-21T11:02:56;10.80;99.90
3281;DHT22;1652;51.31805600;6.20194400;2023-11-21T11:05:25;10.80;99.90
3281;DHT22;1652;51.31805600;6.20194400;2023-11-21T11:08:19;10.80;99.90
3281;DHT22;1652;51.31805600;6.20194400;2023-11-21T11:10:51;10.80;99.90
3281;DHT22;1652;51.31805600;6.20194400;2023-11-21T11:13:18;10.80;99.90
3281;DHT22;1652;51.31805600;6.20194400;2023-11-21T11:15:48;10.80;99.90
3281;DHT22;1652;51.31805600;6.20194400;2023-11-21T11:18:16;10.90;99.90
3281;DHT22;1652;51.31805600;6.20194400;2023-11-21T11:20:45;10.80;99.90
3281;DHT22;1652;51.31805600;6.20194400;2023-11-21T11:26:07;10.90;99.90
3281;DHT22;1652;51.31805600;6.20194400;2023-11-21T11:28:57;11.00;99.90
3281;DHT22;1652;51.31805600;6.20194400;2023-11-21T11:34:26;11.20;99.90
3281;DHT22;1652;51.31805600;6.20194400;2023-11-21T11:37:02;11.30;99.90
3281;DHT22;1652;51.31805600;6.20194400;2023-11-21T11:39:35;11.40;99.90
3281;DHT22;1652;51.31805600;6.20194400;2023-11-21T11:42:05;11.30;99.90
3281;DHT22;1652;51.31805600;6.20194400;2023-11-21T11:47:29;11.50;99.90
3281;DHT22;1652;51.31805600;6.20194400;2023-11-21T11:52:34;11.50;99.90
3281;DHT22;1652;51.31805600;6.20194400;2023-11-21T11:55:05;11.40;99.90
3281;DHT22;1652;51.31805600;6.20194400;2023-11-21T11:57:34;11.20;99.90
3281;DHT22;1652;51.31805600;6.20194400;2023-11-21T12:02:46;11.10;99.90
3281;DHT22;1652;51.31805600;6.20194400;2023-11-21T12:05:19;11.10;99.90
3281;DHT22;1652;51.31805600;6.20194400;2023-11-21T12:07:50;11.20;99.90
3281;DHT22;1652;51.31805600;6.20194400;2023-11-21T12:10:28;11.10;99.90
3281;DHT22;1652;51.31805600;6.20194400;2023-11-21T12:15:23;11.10;99.90
3281;DHT22;1652;51.31805600;6.20194400;2023-11-21T12:17:52;10.90;99.90
3281;DHT22;1652;51.31805600;6.20194400;2023-11-21T12:20:22;10.80;99.90
3281;DHT22;1652;51.31805600;6.20194400;2023-11-21T12:22:59;10.70;99.90
3281;DHT22;1652;51.31805600;6.20194400;2023-11-21T12:25:28;10.70;99.90
3281;DHT22;1652;51.31805600;6.20194400;2023-11-21T12:28:00;10.70;99.90
3281;DHT22;1652;51.31805600;6.20194400;2023-11-21T12:30:29;10.70;99.90
3281;DHT22;1652;51.31805600;6.20194400;2023-11-21T12:32:59;10.60;99.90
3281;DHT22;1652;51.31805600;6.20194400;2023-11-21T12:35:27;10.60;99.90
3281;DHT22;1652;51.31805600;6.20194400;2023-11-21T12:37:55;10.50;99.90
3281;DHT22;1652;51.31805600;6.20194400;2023-11-21T12:40:25;10.50;99.90
3281;DHT22;1652;51.31805600;6.20194400;2023-11-21T12:42:54;10.50;99.90
3281;DHT22;1652;51.31805600;6.20194400;2023-11-21T12:45:24;10.40;99.90
3281;DHT22;1652;51.31805600;6.20194400;2023-11-21T12:48:00;10.50;99.90
3281;DHT22;1652;51.31805600;6.20194400;2023-11-21T12:50:31;10.50;99.90
3281;DHT22;1652;51.31805600;6.20194400;2023-11-21T12:53:07;10.30;99.90
3281;DHT22;1652;51.31805600;6.20194400;2023-11-21T12:55:36;10.30;99.90
3281;DHT22;1652;51.31805600;6.20194400;2023-11-21T12:58:08;10.30;99.90
3281;DHT22;1652;51.31805600;6.20194400;2023-11-21T13:00:44;10.40;99.90
3281;DHT22;1652;51.31805600;6.20194400;2023-11-21T13:03:12;10.50;99.90
3281;DHT22;1652;51.31805600;6.20194400;2023-11-21T13:05:45;10.60;99.90
3281;DHT22;1652;51.31805600;6.20194400;2023-11-21T13:08:15;10.60;99.90
3281;DHT22;1652;51.31805600;6.20194400;2023-11-21T13:10:49;10.60;99.90
3281;DHT22;1652;51.31805600;6.20194400;2023-11-21T13:13:16;10.50;99.90
3281;DHT22;1652;51.31805600;6.20194400;2023-11-21T13:15:51;10.50;99.90
3281;DHT22;1652;51.31805600;6.20194400;2023-11-21T13:18:19;10.50;99.90
3281;DHT22;1652;51.31805600;6.20194400;2023-11-21T13:20:49;10.70;99.90
3281;DHT22;1652;51.31805600;6.20194400;2023-11-21T13:23:17;10.80;99.90
3281;DHT22;1652;51.31805600;6.20194400;2023-11-21T13:25:44;10.60;99.90
3281;DHT22;1652;51.31805600;6.20194400;2023-11-21T13:28:27;10.40;99.90
3281;DHT22;1652;51.31805600;6.20194400;2023-11-21T13:31:03;10.20;99.90
3281;DHT22;1652;51.31805600;6.20194400;2023-11-21T13:33:38;10.10;99.90
3281;DHT22;1652;51.31805600;6.20194400;2023-11-21T13:36:06;10.20;99.90
3281;DHT22;1652;51.31805600;6.20194400;2023-11-21T13:38:36;10.30;99.90
3281;DHT22;1652;51.31805600;6.20194400;2023-11-21T13:41:08;10.20;99.90
3281;DHT22;1652;51.31805600;6.20194400;2023-11-21T13:43:37;10.30;99.90
3281;DHT22;1652;51.31805600;6.20194400;2023-11-21T13:46:05;10.30;99.90
3281;DHT22;1652;51.31805600;6.20194400;2023-11-21T13:48:40;10.30;99.90
3281;DHT22;1652;51.31805600;6.20194400;2023-11-21T13:51:10;10.40;99.90
3281;DHT22;1652;51.31805600;6.20194400;2023-11-21T13:53:44;10.40;99.90
3281;DHT22;1652;51.31805600;6.20194400;2023-11-21T13:56:15;10.40;99.90
3281;DHT22;1652;51.31805600;6.20194400;2023-11-21T13:58:52;10.40;99.90
3281;DHT22;1652;51.31805600;6.20194400;2023-11-21T14:01:25;10.40;99.90
3281;DHT22;1652;51.31805600;6.20194400;2023-11-21T14:04:00;10.40;99.90
3281;DHT22;1652;51.31805600;6.20194400;2023-11-21T14:06:35;10.30;99.90
3281;DHT22;1652;51.31805600;6.20194400;2023-11-21T14:09:15;10.40;99.90
3281;DHT22;1652;51.31805600;6.20194400;2023-11-21T14:11:54;10.40;99.90
3281;DHT22;1652;51.31805600;6.20194400;2023-11-21T14:14:24;10.30;99.90
3281;DHT22;1652;51.31805600;6.20194400;2023-11-21T14:16:52;10.40;99.90
3281;DHT22;1652;51.31805600;6.20194400;2023-11-21T14:19:19;10.40;99.90